Terminal Aerodrome Forecast
Issued by NWS Jackson, KY

Home | Current Version | Previous Version | Text Only | Print | Product List | Glossary On
Versions: 1 2 3 4 5 6 7 8 9 10 11 12 13 14 15 16 17 18
799
FTUS43 KJKL 151120
TAFJKL
TAF
KJKL 151120Z 1512/1612 32004KT 1/4SM FG OVC002
     FM151400 VRB03KT 1SM BR OVC003
     FM151800 00000KT P6SM OVC015
     FM152100 VRB03KT P6SM VCSH OVC015
     FM160000 VRB03KT 3SM -SHRA BR OVC008=

USA.gov is the U.S. government's official web portal to all federal, state and local government web resources and services.